This is the latest recevied weather packets stored in our database for station/object EB1HRW. If no packets are shown the sender has not sent any weather packets the latest 10 day(s).
| Time | Temp. | Humidity | Pressure | Rain* | Wind** | Luminosity | Snow |
|---|---|---|---|---|---|---|---|
| 1787534279 | 21.11° C | 40% | 1008.7 hPa | 0 mm | - | - | - |
| 1787533378 | 21.11° C | 41% | 1008.8 hPa | 0 mm | - | - | - |
| 1787532478 | 21.67° C | 40% | 1008.9 hPa | 0 mm | - | - | - |
| 1787531579 | 21.67° C | 40% | 1009.1 hPa | 0 mm | - | - | - |
| 1787530678 | 21.67° C | 40% | 1009.1 hPa | 0 mm | - | - | - |
| 1787529778 | 22.22° C | 40% | 1009.2 hPa | 0 mm | - | - | - |
| 1787528879 | 22.22° C | 40% | 1009.2 hPa | 0 mm | - | - | - |
| 1787527978 | 21.67° C | 41% | 1009.3 hPa | 0 mm | - | - | - |
| 1787527078 | 22.22° C | 41% | 1009.3 hPa | 0 mm | - | - | - |
| 1787526179 | 22.22° C | 42% | 1009.3 hPa | 0 mm | - | - | - |
| 1787525277 | 22.22° C | 40% | 1009.2 hPa | 0 mm | - | - | - |
| 1787524361 | 22.22° C | 42% | 1009.3 hPa | 0 mm | - | - | - |
| 1787524316 | 22.22° C | 43% | 1009.2 hPa | 0 mm | - | - | - |
| 1787475037 | 22.22° C | 49% | 1012.6 hPa | 0 mm | - | - | - |
| 1787474135 | 21.11° C | 53% | 1012.6 hPa | 0 mm | - | - | - |
| 1787473236 | 20.56° C | 53% | 1012.6 hPa | 0 mm | - | - | - |
| 1787472337 | 20° C | 55% | 1012.6 hPa | 0 mm | - | - | - |
| 1787471435 | 19.44° C | 56% | 1012.6 hPa | 0 mm | - | - | - |
| 1787470536 | 18.33° C | 60% | 1012.6 hPa | 0 mm | - | - | - |
| 1787469636 | 17.22° C | 63% | 1012.5 hPa | 0 mm | - | - | - |
| 1787468736 | 16.11° C | 66% | 1012.5 hPa | 0 mm | - | - | - |
| 1787467835 | 15.56° C | 66% | 1012.5 hPa | 0 mm | - | - | - |
| 1787466935 | 15° C | 69% | 1012.6 hPa | 0 mm | - | - | - |
| 1787466037 | 15° C | 67% | 1012.5 hPa | 0 mm | - | - | - |
| 1787461535 | 14.44° C | 70% | 1012 hPa | 0 mm | - | - | - |
* Rain latest hour (hover to see other rain measurements)
** Current wind speed in m/s (hover to see current wind gust speed)